Share

Kekaha, HI

Barking Sands PMRF (PHBK) Elev 13 ft | 22.02 °N, 159.79 °W | Change Station

Current weather conditions updated 51 minutes ago

Clear
Clear
79 °F
Feels Like 79 °F
N
5
Wind Variable Wind from NW
Sunrise 6:17 AM
Sunset 6:59 PM
Moon Waning Gibbous

Tomorrow is forecast to be nearly the same temperature as today.

Pressure 30.07 in
Visibility 10.0 miles
Clouds Clear
Dew Point 64 °F
Humidity 60%
Rainfall 0.00 in
Snow Depth Not available.
UV 1 out of 16
Pollen Not available.
Air Quality Not available.
Flu Activity Sporadic
METAR PHBK 180356Z AUTO 31004KT 10SM CLR 26/18 A3006 RMK AO2 SLP181 T02610178 TSNO

More Conditions Fewer Conditions

Pressure 30.07 in
Visibility 10.0 miles
Clouds Clear
Dew Point 64 °F
Humidity 60%
Rainfall 0.00 in
Snow Depth Not available.
UV 1 out of 16
Pollen Not available.
Air Quality Not available.
Flu Activity Sporadic
METAR PHBK 180356Z AUTO 31004KT 10SM CLR 26/18 A3006 RMK AO2 SLP181 T02610178 TSNO

More Conditions Fewer Conditions

10-Day Forecast

Almanac

Astronomy

Apr. 17, 2014 Rise Set
Actual Time 6:17 AM HST 6:59 PM HST
Civil Twilight 5:54 AM HST 7:22 PM HST
Nautical Twilight 5:27 AM HST 7:49 PM HST
Astronomical Twilight 5:00 AM HST 8:16 PM HST
Moon 9:42 PM HST (4/17) 8:11 AM HST (4/17)
Length of Visible Light 13h 27m
Length of Day
12h 42m
Tomorrow will be 1m 11s longer.
Waning Gibbous, 90% of the Moon is Illuminated
Apr 18
Waning Gibbous
Apr 22
Last Quarter
Apr 29
New
May 6
First Quarter
May 14
Full

Yesterday's Extremes

State Highs State Lows

Community

  • SUNRISE THROUGH THE TREES.
    SUNRISE THROUGH THE TREES.
  • Dog Wood Blossoms
    Dog Wood Blossoms
  • Morning Light
    Morning Light
  • New Day
    New Day
  • Lake Michigan Sunrise
    Lake Michigan Sunrise

WunderPhotos

Upload Photos

1,702,258 photos uploaded!

WunderBlogs® & News

Nearby

Snow Depth

Station Depth Elevation
No new snow has been reported.

Coastal Water Temperatures

Place Temperature
No Stations Reporting

Earthquake Activity

City Distance Mag. Time & Date
No recent earthquake activity has been reported nearby.
Minimum magnitude displayed is 2.5.

Nearby Weather Stations

Station Location Temp. Heat Index Dew Point Humidity Wind Precip. Elev Updated Type
Na Pali Properties on Kauai, Hanalei, HI 73.1 °F 71 °F 70 °F 89% SE  at  2.9 mph 0.00 in / hr 23 ft 6:47 PM HST Rapid Fire
Pooku, Princeville, HI 70.7 °F - 68 °F 92% SE  at  0.0 mph 0.05 in / hr 417 ft 6:47 PM HST Rapid Fire
North Shore of Kauai, Princeville, HI 72.5 °F 71 °F 68 °F 86% East  at  8.7 mph 0.00 in / hr 0 ft 6:47 PM HST Rapid Fire
Kalihiwai Ridge, Kilauea, HI 72.7 °F 71 °F 69 °F 89% SSE  at  1.0 mph 0.00 in / hr 325 ft 6:47 PM HST Rapid Fire

Show More Stations Show Fewer Stations

What do you think?

We're not finished. Please let us know what you like, what you don't like, and what you are still missing.